Time;durP1;ratioP1;P1;durP2;ratioP2;P2;SDS_P1;SDS_P2;PMS_P1;PMS_P2;Temp;Humidity;BMP_temperature;BMP_pressure;BME280_temperature;BME280_humidity;BME280_pressure;Samples;Min_cycle;Max_cycle;Signal;HPM_P1;HPM_P2
2023/04/03 00:01:19;;;;;;;;;;;;;;;6.59;73.99;100899.97;5060441;28;19936;-57
2023/04/03 00:03:45;;;;;;;;;;;;;;;6.62;73.52;100906.13;5057191;28;20014;-57
2023/04/03 00:06:11;;;;;;;;;;;;;;;6.66;73.73;100902.63;5065835;28;19951;-58
2023/04/03 00:08:37;;;;;;;;;;;;;;;6.74;73.92;100910.50;5052544;28;19927;-57
2023/04/03 00:11:02;;;;;;;;;;;;;;;6.82;73.16;100908.72;5066744;28;19920;-58
2023/04/03 00:13:28;;;;;;;;;;;;;;;6.95;73.18;100907.81;5069634;28;19984;-58
2023/04/03 00:15:53;;;;;;;;;;;;;;;7.02;73.33;100906.88;5066337;28;20421;-57
2023/04/03 00:18:18;;;;;;;;;;;;;;;6.99;73.02;100906.91;5068997;28;20397;-58
2023/04/03 00:20:44;;;;;;;;;;;;;;;6.99;72.33;100909.56;5070907;28;19945;-59
2023/04/03 00:23:09;;;;;;;;;;;;;;;7.04;72.15;100909.53;5061346;28;19964;-58
2023/04/03 00:25:35;;;;;;;;;;;;;;;7.07;72.73;100910.41;5069434;28;20388;-58
2023/04/03 00:28:00;;;;;;;;;;;;;;;7.12;72.81;100913.00;5065775;28;20790;-57
2023/04/03 00:30:25;;;;;;;;;;;;;;;7.15;72.89;100913.03;5050013;28;19928;-58
2023/04/03 00:32:51;;;;;;;;;;;;;;;7.20;72.87;100905.94;5049515;28;19934;-58
2023/04/03 00:35:17;;;;;;;;;;;;;;;7.17;72.19;100896.25;5052493;28;19954;-58
2023/04/03 00:37:43;;;;;;;;;;;;;;;7.16;71.97;100913.00;5050724;28;20377;-58
2023/04/03 00:40:09;;;;;;;;;;;;;;;7.06;71.37;100907.75;5050861;28;19934;-58
2023/04/03 00:42:36;;;;;;;;;;;;;;;7.11;71.24;100912.16;5059145;28;20086;-58
2023/04/03 00:45:01;;;;;;;;;;;;;;;7.19;71.89;100920.03;5071181;28;20024;-58
2023/04/03 00:47:27;;;;;;;;;;;;;;;7.26;72.95;100912.09;5069791;28;20342;-58
2023/04/03 00:49:53;;;;;;;;;;;;;;;7.26;71.58;100912.09;5070400;28;19932;-58
2023/04/03 00:52:21;;;;;;;;;;;;;;;7.28;72.27;100920.00;5071310;28;19925;-58
2023/04/03 00:54:47;;;;;;;;;;;;;;;7.29;72.58;100917.34;5060217;28;19940;-58
2023/04/03 00:57:13;;;;;;;;;;;;;;;7.26;71.12;100916.50;5051699;28;19996;-58
2023/04/03 00:59:46;;;;;;;;;;;;;;;7.24;71.52;100919.16;5050708;28;20259;-58
2023/04/03 01:02:11;;;;;;;;;;;;;;;7.21;70.90;100916.53;5051118;28;19957;-58
2023/04/03 01:04:38;;;;;;;;;;;;;;;7.25;72.23;100909.44;5058163;28;20001;-59
2023/04/03 01:07:08;;;;;;;;;;;;;;;7.24;71.66;100908.56;5071321;28;20331;-59
2023/04/03 01:09:33;;;;;;;;;;;;;;;7.22;71.84;100907.69;5061521;28;19939;-59
2023/04/03 01:12:17;;;;;;;;;;;;;;;7.20;71.31;100909.44;5051231;28;19929;-58
2023/04/03 01:14:43;;;;;;;;;;;;;;;7.16;71.62;100904.19;5051004;28;19940;-58
2023/04/03 01:17:27;;;;;;;;;;;;;;;7.11;71.68;100909.50;5051233;28;19923;-58
2023/04/03 01:20:02;;;;;;;;;;;;;;;7.16;72.94;100910.38;5059069;28;20349;-58
2023/04/03 01:22:35;;;;;;;;;;;;;;;7.13;72.13;100905.09;5070854;28;20455;-58
2023/04/03 01:25:00;;;;;;;;;;;;;;;7.13;71.78;100907.75;5067355;28;20447;-59
2023/04/03 01:27:27;;;;;;;;;;;;;;;7.17;72.99;100908.56;5070917;28;20019;-58
2023/04/03 01:29:52;;;;;;;;;;;;;;;7.16;72.96;100915.66;5071046;28;19930;-58
2023/04/03 01:32:17;;;;;;;;;;;;;;;7.06;71.64;100907.75;5069205;28;20437;-58
2023/04/03 01:34:43;;;;;;;;;;;;;;;7.05;71.50;100909.50;5053340;28;19940;-58
2023/04/03 01:37:08;;;;;;;;;;;;;;;7.05;71.49;100906.00;5070112;28;19970;-58
2023/04/03 01:39:33;;;;;;;;;;;;;;;7.01;72.09;100910.44;5066718;28;19975;-58
2023/04/03 01:41:59;;;;;;;;;;;;;;;7.03;71.73;100903.38;5070184;28;19950;-58
2023/04/03 01:44:24;;;;;;;;;;;;;;;6.99;72.31;100898.97;5062658;28;19940;-58
2023/04/03 01:46:49;;;;;;;;;;;;;;;7.03;72.77;100908.66;5050494;28;20422;-58
2023/04/03 01:49:15;;;;;;;;;;;;;;;7.06;72.35;100902.47;5064564;28;20469;-58
2023/04/03 01:51:40;;;;;;;;;;;;;;;7.09;71.62;100903.34;5070720;28;19962;-58
2023/04/03 01:54:05;;;;;;;;;;;;;;;7.04;71.32;100902.47;5044892;28;20037;-58
2023/04/03 01:56:30;;;;;;;;;;;;;;;7.07;72.01;100910.41;5030640;28;19930;-58
2023/04/03 01:58:56;;;;;;;;;;;;;;;7.07;73.63;100910.41;5032660;28;19996;-58
2023/04/03 02:01:21;;;;;;;;;;;;;;;7.04;71.63;100906.88;5052752;28;20465;-58
2023/04/03 02:03:46;;;;;;;;;;;;;;;7.12;72.01;100908.59;5050393;28;19951;-58
2023/04/03 02:06:12;;;;;;;;;;;;;;;7.10;71.78;100898.94;5050117;28;19917;-58
2023/04/03 02:08:37;;;;;;;;;;;;;;;7.11;71.64;100892.75;5041353;28;20387;-58
2023/04/03 02:11:02;;;;;;;;;;;;;;;7.16;72.19;100902.44;5030064;28;19936;-58
2023/04/03 02:13:27;;;;;;;;;;;;;;;7.02;71.10;100895.44;5034917;28;19982;-58
2023/04/03 02:15:53;;;;;;;;;;;;;;;6.95;71.76;100894.59;5034263;28;19954;-58
2023/04/03 02:18:18;;;;;;;;;;;;;;;6.81;71.82;100899.03;5045729;28;20047;-58
2023/04/03 02:20:43;;;;;;;;;;;;;;;6.81;72.11;100893.75;5073735;28;20342;-58
2023/04/03 02:23:09;;;;;;;;;;;;;;;6.73;71.34;100887.63;5063163;28;19955;-58
2023/04/03 02:25:34;;;;;;;;;;;;;;;6.71;72.80;100889.38;5034136;28;20687;-59
2023/04/03 02:28:00;;;;;;;;;;;;;;;6.69;73.69;100897.31;5034497;28;19927;-59
2023/04/03 02:30:26;;;;;;;;;;;;;;;6.59;73.83;100894.69;5037020;28;19968;-58
2023/04/03 02:32:51;;;;;;;;;;;;;;;6.55;74.67;100908.81;5034079;28;20370;-58
2023/04/03 02:35:16;;;;;;;;;;;;;;;6.44;73.36;100894.75;5040291;28;19932;-58
2023/04/03 02:37:42;;;;;;;;;;;;;;;6.39;74.73;100904.44;5065372;28;19955;-59
2023/04/03 02:40:08;;;;;;;;;;;;;;;6.35;74.55;100902.69;5072937;28;19934;-58
2023/04/03 02:42:33;;;;;;;;;;;;;;;6.32;74.77;100894.75;5035942;28;19924;-58
2023/04/03 02:45:00;;;;;;;;;;;;;;;6.26;75.03;100900.91;5048831;28;19928;-58
2023/04/03 02:47:25;;;;;;;;;;;;;;;6.16;75.05;100900.97;5045265;28;20362;-57
2023/04/03 02:49:52;;;;;;;;;;;;;;;6.06;75.96;100900.06;5046434;28;19982;-58
2023/04/03 02:52:18;;;;;;;;;;;;;;;6.05;75.14;100900.94;4834449;28;20095;-58
2023/04/03 02:54:43;;;;;;;;;;;;;;;6.04;76.30;100899.19;5054695;28;20037;-59
2023/04/03 02:57:11;;;;;;;;;;;;;;;6.00;76.36;100901.81;5073518;28;19930;-58
2023/04/03 02:59:40;;;;;;;;;;;;;;;5.96;77.22;100902.72;5073301;28;19930;-58
2023/04/03 03:02:05;;;;;;;;;;;;;;;5.99;77.67;100902.72;5073511;28;20470;-59
2023/04/03 03:04:31;;;;;;;;;;;;;;;5.98;77.47;100908.88;5069782;28;19952;-58
2023/04/03 03:06:56;;;;;;;;;;;;;;;5.86;77.97;100906.22;5073654;28;19927;-58
2023/04/03 03:09:21;;;;;;;;;;;;;;;5.81;78.07;100902.66;5071566;28;19942;-58
2023/04/03 03:11:46;;;;;;;;;;;;;;;5.79;77.93;100902.66;5055514;28;19933;-58
2023/04/03 03:14:12;;;;;;;;;;;;;;;5.73;77.65;100904.44;5053590;28;20027;-58
2023/04/03 03:16:37;;;;;;;;;;;;;;;5.71;77.45;100903.53;5055769;28;19959;-58
2023/04/03 03:19:02;;;;;;;;;;;;;;;5.66;77.51;100900.00;5065887;28;19988;-58
2023/04/03 03:21:27;;;;;;;;;;;;;;;5.61;78.06;100896.50;5073109;28;19989;-58
2023/04/03 03:23:53;;;;;;;;;;;;;;;5.63;78.63;100907.94;5071548;28;20407;-58
2023/04/03 03:26:18;;;;;;;;;;;;;;;5.61;78.10;100893.84;5059712;28;19920;-58
2023/04/03 03:28:43;;;;;;;;;;;;;;;5.63;78.28;100897.38;5064582;28;19927;-58
2023/04/03 03:31:09;;;;;;;;;;;;;;;5.55;78.04;100901.75;5068484;28;19980;-58
2023/04/03 03:33:34;;;;;;;;;;;;;;;5.54;78.82;100899.97;5071850;28;19931;-59
2023/04/03 03:36:00;;;;;;;;;;;;;;;5.44;79.14;100904.38;5072024;28;20039;-58
2023/04/03 03:38:25;;;;;;;;;;;;;;;5.42;78.68;100911.41;5069772;28;19957;-59
2023/04/03 03:40:51;;;;;;;;;;;;;;;5.41;78.50;100901.72;5071845;28;20021;-58
2023/04/03 03:43:16;;;;;;;;;;;;;;;5.35;79.07;100894.69;5065832;28;20371;-59
2023/04/03 03:45:42;;;;;;;;;;;;;;;5.32;79.04;100897.31;5053148;28;19925;-58
2023/04/03 03:48:07;;;;;;;;;;;;;;;5.30;79.49;100896.41;5056869;28;19920;-58
2023/04/03 03:50:32;;;;;;;;;;;;;;;5.23;79.38;100894.66;5071283;28;20288;-58
2023/04/03 03:52:58;;;;;;;;;;;;;;;5.28;79.30;100900.84;5060368;28;19931;-58
2023/04/03 03:55:23;;;;;;;;;;;;;;;5.26;79.13;100894.66;5051100;28;19957;-58
2023/04/03 03:57:48;;;;;;;;;;;;;;;5.24;79.27;100899.03;5050737;28;20018;-58
2023/04/03 04:00:14;;;;;;;;;;;;;;;5.23;79.02;100899.94;5050244;28;19929;-58
2023/04/03 04:02:39;;;;;;;;;;;;;;;5.24;79.77;100904.31;5053514;28;19997;-58
2023/04/03 04:05:05;;;;;;;;;;;;;;;5.20;79.40;100910.47;5058957;28;19951;-58
2023/04/03 04:07:30;;;;;;;;;;;;;;;5.19;79.67;100907.81;5067489;28;19944;-58
2023/04/03 04:09:55;;;;;;;;;;;;;;;5.17;80.00;100915.72;5070828;28;19931;-58
2023/04/03 04:12:21;;;;;;;;;;;;;;;5.13;79.76;100907.81;5067335;28;19938;-58
2023/04/03 04:14:46;;;;;;;;;;;;;;;5.09;79.64;100911.31;5070973;28;20053;-57
2023/04/03 04:17:15;;;;;;;;;;;;;;;5.09;80.10;100911.31;5071378;28;19924;-58
2023/04/03 04:19:40;;;;;;;;;;;;;;;5.06;79.43;100913.91;5071783;28;19931;-58
2023/04/03 04:22:05;;;;;;;;;;;;;;;5.05;79.94;100913.06;5068293;28;19952;-58
2023/04/03 04:24:31;;;;;;;;;;;;;;;5.00;80.66;100914.81;5071729;28;19932;-58
2023/04/03 04:26:56;;;;;;;;;;;;;;;5.00;80.68;100912.16;5067534;28;20027;-59
2023/04/03 04:29:21;;;;;;;;;;;;;;;5.01;80.89;100924.47;5052197;28;19927;-59
2023/04/03 04:31:46;;;;;;;;;;;;;;;4.99;80.44;100926.19;5052050;28;20265;-59
2023/04/03 04:34:12;;;;;;;;;;;;;;;4.98;80.42;100924.44;5065080;28;19927;-59
2023/04/03 04:36:38;;;;;;;;;;;;;;;4.92;80.27;100919.16;5071999;28;19990;-59
2023/04/03 04:39:03;;;;;;;;;;;;;;;4.91;80.51;100919.16;5066685;28;20454;-59
2023/04/03 04:41:28;;;;;;;;;;;;;;;4.87;80.50;100927.91;5051758;28;20019;-59
2023/04/03 04:43:54;;;;;;;;;;;;;;;4.84;81.03;100925.25;5062598;28;19945;-59
2023/04/03 04:46:19;;;;;;;;;;;;;;;4.82;81.41;100927.91;5069661;28;19936;-59
2023/04/03 04:48:45;;;;;;;;;;;;;;;4.82;81.06;100927.00;5071435;28;19981;-58
2023/04/03 04:51:10;;;;;;;;;;;;;;;4.72;81.56;100934.00;5068367;28;19943;-59
2023/04/03 04:53:35;;;;;;;;;;;;;;;4.72;81.93;100936.63;5071452;28;20003;-59
2023/04/03 04:56:01;;;;;;;;;;;;;;;4.76;82.10;100933.13;5071905;28;19931;-59
2023/04/03 04:58:26;;;;;;;;;;;;;;;4.75;82.00;100941.91;5072145;28;19981;-59
2023/04/03 05:01:05;;;;;;;;;;;;;;;4.73;81.36;100948.03;5062124;28;19957;-59
2023/04/03 05:03:30;;;;;;;;;;;;;;;4.73;81.73;100941.00;5051766;28;20001;-59
2023/04/03 05:05:55;;;;;;;;;;;;;;;4.70;82.29;100943.63;5063596;28;19951;-59
2023/04/03 05:08:21;;;;;;;;;;;;;;;4.72;82.22;100947.16;5048392;28;19990;-59
2023/04/03 05:10:46;;;;;;;;;;;;;;;4.68;82.92;100941.88;5048137;28;19927;-58
2023/04/03 05:13:12;;;;;;;;;;;;;;;4.69;82.65;100948.91;5052566;28;19941;-59
2023/04/03 05:15:37;;;;;;;;;;;;;;;4.65;83.61;100949.75;5051355;28;19932;-59
2023/04/03 05:18:03;;;;;;;;;;;;;;;4.61;84.13;100948.81;5055598;28;19940;-59
2023/04/03 05:20:28;;;;;;;;;;;;;;;4.64;84.31;100943.59;5070001;28;19930;-59
2023/04/03 05:22:53;;;;;;;;;;;;;;;4.63;83.85;100952.38;5053338;28;20000;-59
2023/04/03 05:25:19;;;;;;;;;;;;;;;4.65;83.66;100955.91;5062651;28;20303;-59
2023/04/03 05:27:44;;;;;;;;;;;;;;;4.68;83.72;100950.63;5059881;28;19938;-59
2023/04/03 05:30:10;;;;;;;;;;;;;;;4.69;83.92;100957.69;5050746;28;19988;-59
2023/04/03 05:32:35;;;;;;;;;;;;;;;4.77;83.81;100950.72;5054714;28;20022;-58
2023/04/03 05:35:00;;;;;;;;;;;;;;;4.80;84.06;100965.63;5051104;28;20412;-59
2023/04/03 05:37:28;;;;;;;;;;;;;;;4.89;83.99;100963.06;5053589;28;20022;-58
2023/04/03 05:39:54;;;;;;;;;;;;;;;5.03;84.00;100958.72;5051692;28;20460;-59
2023/04/03 05:42:19;;;;;;;;;;;;;;;5.16;83.83;100964.06;5063701;28;19954;-59
2023/04/03 05:44:46;;;;;;;;;;;;;;;5.24;82.35;100964.97;5051344;28;19945;-59
2023/04/03 05:47:12;;;;;;;;;;;;;;;5.40;82.12;100960.66;5067503;28;19932;-59
2023/04/03 05:49:40;;;;;;;;;;;;;;;5.44;81.98;100966.84;5073872;28;20450;-59
2023/04/03 05:52:05;;;;;;;;;;;;;;;5.53;80.75;100974.75;5074573;28;20037;-59
2023/04/03 05:54:31;;;;;;;;;;;;;;;5.54;80.55;100968.59;5070899;28;20032;-58
2023/04/03 05:56:56;;;;;;;;;;;;;;;5.69;79.81;100968.63;5075359;28;19939;-58
2023/04/03 05:59:21;;;;;;;;;;;;;;;5.98;78.89;100972.25;5073177;28;19932;-59
2023/04/03 06:01:47;;;;;;;;;;;;;;;6.32;79.11;100979.31;5057796;28;20359;-59
2023/04/03 06:04:13;;;;;;;;;;;;;;;6.64;75.97;100969.56;5057464;28;19951;-59
2023/04/03 06:06:45;;;;;;;;;;;;;;;6.90;73.89;100970.41;5065344;28;19951;-58
2023/04/03 06:09:11;;;;;;;;;;;;;;;7.37;73.32;100979.06;5061946;28;19935;-59
2023/04/03 06:11:36;;;;;;;;;;;;;;;7.81;72.34;100976.16;5075188;28;20022;-59
2023/04/03 06:14:02;;;;;;;;;;;;;;;8.69;69.51;100984.34;5062060;28;20291;-59
2023/04/03 06:16:28;;;;;;;;;;;;;;;10.29;61.03;100973.44;5071912;28;19935;-59
2023/04/03 06:18:53;;;;;;;;;;;;;;;11.40;55.08;100989.09;5070691;28;19939;-59
2023/04/03 06:21:19;;;;;;;;;;;;;;;12.48;51.38;100980.41;5068525;28;20017;-60
2023/04/03 06:23:44;;;;;;;;;;;;;;;13.76;48.36;100979.53;5074485;28;20332;-59
2023/04/03 06:26:10;;;;;;;;;;;;;;;14.55;45.92;100985.94;5074349;28;19977;-59
2023/04/03 06:28:35;;;;;;;;;;;;;;;14.13;45.71;100984.63;5073255;28;19930;-59
2023/04/03 06:31:00;;;;;;;;;;;;;;;14.20;45.95;100988.88;5086287;28;19941;-59
2023/04/03 06:33:26;;;;;;;;;;;;;;;14.97;44.31;100986.28;5074578;28;20013;-59
2023/04/03 06:35:55;;;;;;;;;;;;;;;14.76;42.95;100998.59;5065917;28;19939;-58
2023/04/03 06:38:20;;;;;;;;;;;;;;;14.52;44.91;100994.94;5052955;28;20019;-59
2023/04/03 06:40:46;;;;;;;;;;;;;;;15.51;42.09;100993.25;5068023;28;20030;-58
2023/04/03 06:43:12;;;;;;;;;;;;;;;16.69;41.72;101001.94;5052213;28;19983;-58
2023/04/03 06:45:37;;;;;;;;;;;;;;;15.92;40.64;100991.66;5067781;28;20010;-58
2023/04/03 06:48:02;;;;;;;;;;;;;;;16.00;40.01;100997.59;5064793;28;19940;-58
2023/04/03 06:50:28;;;;;;;;;;;;;;;16.54;39.97;100999.94;5071151;28;20426;-58
2023/04/03 06:52:53;;;;;;;;;;;;;;;17.33;38.88;101002.75;5073185;28;19963;-59
2023/04/03 06:55:18;;;;;;;;;;;;;;;18.01;38.62;101001.34;5057489;28;19953;-58
2023/04/03 06:57:44;;;;;;;;;;;;;;;17.30;37.66;101010.97;5052584;28;19927;-59
2023/04/03 07:00:10;;;;;;;;;;;;;;;16.71;38.61;101008.13;5057805;28;19935;-58
2023/04/03 07:02:36;;;;;;;;;;;;;;;16.44;38.64;101009.25;5072445;28;19956;-59
2023/04/03 07:05:02;;;;;;;;;;;;;;;14.54;42.17;101013.63;5072488;28;20823;-59
2023/04/03 07:07:27;;;;;;;;;;;;;;;12.51;45.89;101012.38;5071085;28;19936;-59
2023/04/03 07:09:53;;;;;;;;;;;;;;;12.67;46.45;101021.72;5059072;28;19942;-59
2023/04/03 07:12:18;;;;;;;;;;;;;;;14.28;44.42;101005.56;5073127;28;19929;-59
2023/04/03 07:14:43;;;;;;;;;;;;;;;14.95;42.21;101015.78;5063705;28;19936;-59
2023/04/03 07:17:09;;;;;;;;;;;;;;;13.33;43.98;101020.91;5053794;28;20299;-59
2023/04/03 07:19:34;;;;;;;;;;;;;;;11.83;47.28;101021.94;5068482;28;19986;-59
2023/04/03 07:21:59;;;;;;;;;;;;;;;10.94;49.42;101024.63;5071230;28;19932;-58
2023/04/03 07:24:26;;;;;;;;;;;;;;;10.71;52.20;101022.34;5053841;28;19936;-59
2023/04/03 07:26:54;;;;;;;;;;;;;;;12.00;50.07;101023.34;5057780;28;19936;-59
2023/04/03 07:29:21;;;;;;;;;;;;;;;12.99;46.80;101026.25;5072652;28;19933;-58
2023/04/03 07:31:46;;;;;;;;;;;;;;;13.57;46.16;101025.56;5070146;28;19932;-59
2023/04/03 07:34:12;;;;;;;;;;;;;;;14.06;45.43;101023.19;5072524;28;19948;-59
2023/04/03 07:36:37;;;;;;;;;;;;;;;14.19;44.65;101016.53;5071631;28;20401;-59
2023/04/03 07:39:02;;;;;;;;;;;;;;;14.77;44.19;101019.09;5068205;28;19969;-59
2023/04/03 07:41:28;;;;;;;;;;;;;;;14.58;43.25;101025.97;5071564;28;19942;-59
2023/04/03 07:43:54;;;;;;;;;;;;;;;14.57;43.66;101018.88;5067628;28;19956;-59
2023/04/03 07:46:20;;;;;;;;;;;;;;;14.99;42.77;101025.47;5067272;28;19937;-59
2023/04/03 07:48:45;;;;;;;;;;;;;;;15.66;43.19;101014.13;5072125;28;20412;-58
2023/04/03 07:51:11;;;;;;;;;;;;;;;15.63;41.53;101016.91;5068328;28;19938;-59
2023/04/03 07:53:36;;;;;;;;;;;;;;;15.33;42.64;101017.13;5057018;28;20057;-58
2023/04/03 07:56:02;;;;;;;;;;;;;;;15.29;43.22;101021.72;5061351;28;20394;-58
2023/04/03 07:58:28;;;;;;;;;;;;;;;15.48;43.17;101016.59;5059175;28;20630;-59
2023/04/03 08:00:53;;;;;;;;;;;;;;;14.82;42.69;101030.53;5067159;28;19954;-59
2023/04/03 08:03:18;;;;;;;;;;;;;;;14.69;44.09;101023.84;5071120;28;19955;-59
2023/04/03 08:05:45;;;;;;;;;;;;;;;15.05;44.51;101022.59;5070932;28;19924;-58
2023/04/03 08:08:12;;;;;;;;;;;;;;;15.35;44.18;101021.47;5062820;28;19935;-59
2023/04/03 08:10:37;;;;;;;;;;;;;;;15.61;43.92;101025.94;5070422;28;19937;-59
2023/04/03 08:13:03;;;;;;;;;;;;;;;15.55;43.63;101021.66;5053669;28;19948;-58
2023/04/03 08:15:29;;;;;;;;;;;;;;;15.67;43.68;101017.66;5066200;28;19948;-59
2023/04/03 08:17:55;;;;;;;;;;;;;;;15.82;43.58;101019.78;5068630;28;19977;-60
2023/04/03 08:20:20;;;;;;;;;;;;;;;15.90;44.02;101014.97;5046859;28;19971;-59
2023/04/03 08:22:46;;;;;;;;;;;;;;;15.27;43.65;101018.19;5076478;28;19951;-59
2023/04/03 08:25:11;;;;;;;;;;;;;;;14.54;44.80;101027.03;5076085;28;20032;-58
2023/04/03 08:27:37;;;;;;;;;;;;;;;14.19;44.18;101014.72;5071955;28;19990;-58
2023/04/03 08:30:03;;;;;;;;;;;;;;;13.37;45.43;101028.81;5063534;28;20352;-58
2023/04/03 08:32:29;;;;;;;;;;;;;;;12.64;46.53;101035.16;5060477;28;19944;-59
2023/04/03 08:34:54;;;;;;;;;;;;;;;11.90;47.93;101022.69;5065034;28;19949;-59
2023/04/03 08:37:19;;;;;;;;;;;;;;;11.84;49.11;101023.69;5044726;28;19964;-59
2023/04/03 08:39:45;;;;;;;;;;;;;;;11.69;50.41;101024.06;5065150;28;19937;-59
2023/04/03 08:42:39;;;;;;;;;;;;;;;11.59;49.72;101026.88;5068135;28;20040;-59
2023/04/03 08:45:05;;;;;;;;;;;;;;;11.56;50.34;101032.28;5067964;28;19934;-59
2023/04/03 08:47:31;;;;;;;;;;;;;;;12.13;51.11;101027.50;5081359;28;20287;-58
2023/04/03 08:49:56;;;;;;;;;;;;;;;12.22;50.38;101030.88;5071015;28;19933;-58
2023/04/03 08:52:24;;;;;;;;;;;;;;;11.98;49.31;101020.72;5066446;28;19961;-58
2023/04/03 08:54:50;;;;;;;;;;;;;;;11.80;50.65;101029.13;5083050;28;20048;-59
2023/04/03 08:57:17;;;;;;;;;;;;;;;12.06;50.97;101025.91;5082884;28;19934;-58
2023/04/03 08:59:42;;;;;;;;;;;;;;;12.33;51.53;101031.47;5066589;28;19937;-59
2023/04/03 09:02:34;;;;;;;;;;;;;;;12.83;49.30;101030.25;5072999;28;19929;-58
2023/04/03 09:05:01;;;;;;;;;;;;;;;13.08;48.05;101037.59;5069717;28;19983;-59
2023/04/03 09:07:39;;;;;;;;;;;;;;;13.26;47.16;101040.69;5081225;28;19926;-59
2023/04/03 09:10:05;;;;;;;;;;;;;;;12.88;48.77;101034.53;5074141;28;19937;-58
2023/04/03 09:12:41;;;;;;;;;;;;;;;13.35;49.23;101035.09;5059765;28;19931;-58
2023/04/03 09:15:07;;;;;;;;;;;;;;;14.05;48.90;101024.13;5059203;28;19927;-58
2023/04/03 09:17:44;;;;;;;;;;;;;;;13.83;46.49;101028.34;5067453;28;19916;-59
2023/04/03 09:20:29;;;;;;;;;;;;;;;13.56;47.31;101034.50;5059456;28;20436;-58
2023/04/03 09:22:54;;;;;;;;;;;;;;;13.28;48.75;101038.88;5056190;28;19951;-59
2023/04/03 09:25:21;;;;;;;;;;;;;;;13.06;47.72;101034.09;5057882;28;19929;-58
2023/04/03 09:27:47;;;;;;;;;;;;;;;12.86;48.58;101041.72;5060006;28;19931;-58
2023/04/03 09:30:16;;;;;;;;;;;;;;;13.02;48.67;101029.75;5063609;28;19944;-59
2023/04/03 09:32:42;;;;;;;;;;;;;;;12.61;48.72;101035.25;5073176;28;19927;-59
2023/04/03 09:35:13;;;;;;;;;;;;;;;12.89;49.17;101038.97;5078049;28;20556;-59
2023/04/03 09:37:40;;;;;;;;;;;;;;;13.36;50.55;101034.19;5077161;28;19930;-59
2023/04/03 09:40:05;;;;;;;;;;;;;;;13.42;46.17;101039.34;5074615;28;19941;-59
2023/04/03 09:42:31;;;;;;;;;;;;;;;13.27;45.28;101035.31;5057425;28;19951;-59
2023/04/03 09:44:57;;;;;;;;;;;;;;;13.63;45.19;101036.06;5073942;28;19958;-58
2023/04/03 09:47:29;;;;;;;;;;;;;;;14.34;42.69;101034.81;5073479;28;19954;-58
2023/04/03 09:50:19;;;;;;;;;;;;;;;14.57;40.04;101029.59;5076951;28;20471;-59
2023/04/03 09:52:49;;;;;;;;;;;;;;;13.45;45.10;101039.25;5047343;28;20374;-59
2023/04/03 09:55:15;;;;;;;;;;;;;;;13.42;42.77;101042.03;5056603;28;19965;-59
2023/04/03 09:57:40;;;;;;;;;;;;;;;13.29;43.41;101036.16;5057879;28;19935;-59
2023/04/03 10:00:18;;;;;;;;;;;;;;;13.71;41.97;101039.41;5054502;28;20046;-58
2023/04/03 10:02:44;;;;;;;;;;;;;;;14.08;42.10;101032.03;5052059;28;20038;-59
2023/04/03 10:05:28;;;;;;;;;;;;;;;13.82;42.26;101048.00;5060699;28;20041;-59
2023/04/03 10:08:07;;;;;;;;;;;;;;;13.53;42.93;101043.47;5064405;28;19931;-59
2023/04/03 10:10:32;;;;;;;;;;;;;;;13.36;43.35;101036.88;5053036;28;19928;-59
2023/04/03 10:13:03;;;;;;;;;;;;;;;13.27;44.41;101046.00;5054712;28;19929;-59
2023/04/03 10:15:32;;;;;;;;;;;;;;;13.01;44.16;101040.47;5055205;28;19934;-59
2023/04/03 10:17:59;;;;;;;;;;;;;;;12.88;45.40;101037.19;5060553;28;20465;-59
2023/04/03 10:20:30;;;;;;;;;;;;;;;12.46;44.88;101040.94;5075622;28;20705;-59
2023/04/03 10:23:07;;;;;;;;;;;;;;;12.41;46.24;101037.50;5073425;28;19928;-58
2023/04/03 10:25:46;;;;;;;;;;;;;;;12.62;46.33;101028.13;5076281;28;19947;-59
2023/04/03 10:28:30;;;;;;;;;;;;;;;12.56;44.95;101030.91;5063663;28;20386;-62
2023/04/03 10:31:06;;;;;;;;;;;;;;;12.42;45.42;101038.41;5049719;28;19995;-59
2023/04/03 10:33:37;;;;;;;;;;;;;;;12.53;45.66;101025.66;5058515;28;19930;-60
2023/04/03 10:36:02;;;;;;;;;;;;;;;12.35;44.69;101032.34;5053054;28;20017;-58
2023/04/03 10:38:43;;;;;;;;;;;;;;;12.63;44.42;101033.41;5056408;28;20403;-61
2023/04/03 10:41:14;;;;;;;;;;;;;;;12.86;44.94;101031.06;5066088;28;19946;-61
2023/04/03 10:43:39;;;;;;;;;;;;;;;13.01;44.04;101033.31;5072675;28;20040;-61
2023/04/03 10:46:13;;;;;;;;;;;;;;;12.78;44.09;101022.31;5067344;28;20045;-61
2023/04/03 10:48:44;;;;;;;;;;;;;;;12.96;44.82;101016.50;5067488;28;19946;-62
2023/04/03 10:51:16;;;;;;;;;;;;;;;13.00;45.56;101023.53;5069130;28;19933;-61
2023/04/03 10:53:59;;;;;;;;;;;;;;;12.74;44.32;101026.00;5072523;28;20493;-61
2023/04/03 10:56:39;;;;;;;;;;;;;;;12.38;44.47;101021.56;5072399;28;19917;-61
2023/04/03 10:59:28;;;;;;;;;;;;;;;12.74;44.02;101026.00;5072678;28;19935;-60
2023/04/03 11:01:56;;;;;;;;;;;;;;;13.55;42.67;101022.94;5042768;28;19957;-62
2023/04/03 11:04:23;;;;;;;;;;;;;;;15.16;40.38;101015.03;5072387;28;19920;-62
2023/04/03 11:06:57;;;;;;;;;;;;;;;16.26;37.84;101012.69;5072454;28;19912;-62
2023/04/03 11:09:37;;;;;;;;;;;;;;;16.06;38.01;101007.22;5071234;28;19931;-61
2023/04/03 11:12:09;;;;;;;;;;;;;;;15.83;40.81;101006.28;5052425;28;20795;-61
2023/04/03 11:14:36;;;;;;;;;;;;;;;15.27;37.83;101007.47;5054342;28;20430;-62
2023/04/03 11:17:26;;;;;;;;;;;;;;;14.37;37.67;101010.63;5052152;28;20620;-62
2023/04/03 11:19:54;;;;;;;;;;;;;;;14.13;41.44;101006.91;5067721;28;19943;-61
2023/04/03 11:22:32;;;;;;;;;;;;;;;13.83;41.95;101012.31;5072045;28;19969;-62
2023/04/03 11:25:15;;;;;;;;;;;;;;;13.56;44.22;101005.13;5072244;28;20306;-61
2023/04/03 11:28:06;;;;;;;;;;;;;;;13.23;44.93;101010.47;5054145;28;20329;-62
2023/04/03 11:30:44;;;;;;;;;;;;;;;12.79;43.29;101008.09;5049042;28;19924;-61
2023/04/03 11:33:28;;;;;;;;;;;;;;;12.71;42.79;101002.06;5052641;28;20043;-61
2023/04/03 11:36:06;;;;;;;;;;;;;;;12.94;43.87;101006.81;5067661;28;20031;-61
2023/04/03 11:38:41;;;;;;;;;;;;;;;12.84;42.25;101006.19;5071669;28;19933;-61
2023/04/03 11:41:08;;;;;;;;;;;;;;;12.94;44.39;101002.34;5067864;28;19924;-62
2023/04/03 11:43:34;;;;;;;;;;;;;;;12.92;42.94;100998.84;5070525;28;19994;-61
2023/04/03 11:46:01;;;;;;;;;;;;;;;12.86;43.51;100999.00;5071327;28;19949;-62
2023/04/03 11:48:28;;;;;;;;;;;;;;;12.73;43.29;100991.34;5049446;28;19949;-61
2023/04/03 11:50:53;;;;;;;;;;;;;;;12.98;44.17;100996.00;5051601;28;20409;-61
2023/04/03 11:53:27;;;;;;;;;;;;;;;13.16;43.66;100992.84;5054241;28;19998;-61
2023/04/03 11:55:56;;;;;;;;;;;;;;;13.19;41.60;100989.25;5051675;28;20318;-61
2023/04/03 11:58:23;;;;;;;;;;;;;;;13.30;42.37;100991.59;5052122;28;19935;-61
2023/04/03 12:01:00;;;;;;;;;;;;;;;13.53;42.31;100987.34;5053670;28;19939;-61
2023/04/03 12:05:51;;;;;;;;;;;;;;;13.25;40.20;100991.72;5054495;28;19958;-61
2023/04/03 12:08:26;;;;;;;;;;;;;;;13.27;41.29;100991.69;5051107;28;19936;-61
2023/04/03 12:11:10;;;;;;;;;;;;;;;13.24;43.18;100985.50;5053903;28;19940;-62
2023/04/03 12:13:39;;;;;;;;;;;;;;;13.31;43.86;100991.53;5051049;28;19964;-62
2023/04/03 12:16:06;;;;;;;;;;;;;;;12.94;42.72;100989.00;5051274;28;20456;-61
2023/04/03 12:18:53;;;;;;;;;;;;;;;12.81;42.38;100984.00;5059200;28;19916;-61
2023/04/03 12:21:48;;;;;;;;;;;;;;;12.99;41.82;100987.06;5057555;28;19949;-61
2023/04/03 12:24:16;;;;;;;;;;;;;;;12.93;42.84;100983.69;5037540;28;19961;-61
2023/04/03 12:26:48;;;;;;;;;;;;;;;12.96;41.59;100988.94;5051012;28;20337;-61
2023/04/03 12:29:34;;;;;;;;;;;;;;;13.07;42.28;100977.09;5053417;28;19930;-61
2023/04/03 12:32:03;;;;;;;;;;;;;;;13.03;44.54;100972.75;5050922;28;20002;-61
2023/04/03 12:34:47;;;;;;;;;;;;;;;12.68;41.49;100980.78;5065566;28;19944;-61
2023/04/03 12:37:32;;;;;;;;;;;;;;;12.85;42.29;100975.88;5050656;28;19935;-61
2023/04/03 12:39:57;;;;;;;;;;;;;;;12.85;42.80;100975.88;5050810;28;19952;-61
2023/04/03 12:42:35;;;;;;;;;;;;;;;12.62;43.16;100972.06;5053016;28;19937;-61
2023/04/03 12:45:06;;;;;;;;;;;;;;;12.41;43.22;100978.81;5050790;28;19916;-61
2023/04/03 12:47:35;;;;;;;;;;;;;;;12.36;42.95;100971.81;5052799;28;19946;-61